sensor_id;sensor_type;location;lat;lon;timestamp;temperature;humidity
15554;DHT22;7878;44.632;10.942;2023-02-01T00:00:25;7.90;70.40
15554;DHT22;7878;44.632;10.942;2023-02-01T00:02:51;7.90;70.40
15554;DHT22;7878;44.632;10.942;2023-02-01T00:05:16;7.90;70.40
15554;DHT22;7878;44.632;10.942;2023-02-01T00:07:42;7.90;70.30
15554;DHT22;7878;44.632;10.942;2023-02-01T00:10:08;7.80;70.10
15554;DHT22;7878;44.632;10.942;2023-02-01T00:12:34;7.80;70.20
15554;DHT22;7878;44.632;10.942;2023-02-01T00:15:00;7.80;70.30
15554;DHT22;7878;44.632;10.942;2023-02-01T00:17:26;7.80;70.30
15554;DHT22;7878;44.632;10.942;2023-02-01T00:19:51;7.80;70.30
15554;DHT22;7878;44.632;10.942;2023-02-01T00:22:17;7.70;70.10
15554;DHT22;7878;44.632;10.942;2023-02-01T00:24:43;7.70;69.90
15554;DHT22;7878;44.632;10.942;2023-02-01T00:27:09;7.70;69.80
15554;DHT22;7878;44.632;10.942;2023-02-01T00:29:34;7.70;69.80
15554;DHT22;7878;44.632;10.942;2023-02-01T00:32:00;7.70;69.50
15554;DHT22;7878;44.632;10.942;2023-02-01T00:34:26;7.60;69.40
15554;DHT22;7878;44.632;10.942;2023-02-01T00:36:51;7.60;69.50
15554;DHT22;7878;44.632;10.942;2023-02-01T00:39:17;7.60;69.50
15554;DHT22;7878;44.632;10.942;2023-02-01T00:41:43;7.60;69.40
15554;DHT22;7878;44.632;10.942;2023-02-01T00:44:09;7.50;69.20
15554;DHT22;7878;44.632;10.942;2023-02-01T00:46:34;7.50;69.50
15554;DHT22;7878;44.632;10.942;2023-02-01T00:49:00;7.50;69.60
15554;DHT22;7878;44.632;10.942;2023-02-01T00:51:28;7.50;69.20
15554;DHT22;7878;44.632;10.942;2023-02-01T00:53:55;7.50;69.00
15554;DHT22;7878;44.632;10.942;2023-02-01T00:56:21;7.50;69.00
15554;DHT22;7878;44.632;10.942;2023-02-01T00:58:47;7.50;68.80
15554;DHT22;7878;44.632;10.942;2023-02-01T01:01:15;7.50;68.60
15554;DHT22;7878;44.632;10.942;2023-02-01T01:03:43;7.40;68.60
15554;DHT22;7878;44.632;10.942;2023-02-01T01:06:12;7.40;68.50
15554;DHT22;7878;44.632;10.942;2023-02-01T01:08:38;7.40;68.70
15554;DHT22;7878;44.632;10.942;2023-02-01T01:11:12;7.40;69.00
15554;DHT22;7878;44.632;10.942;2023-02-01T01:13:39;7.40;69.00
15554;DHT22;7878;44.632;10.942;2023-02-01T01:16:06;7.40;69.30
15554;DHT22;7878;44.632;10.942;2023-02-01T01:18:33;7.30;70.00
15554;DHT22;7878;44.632;10.942;2023-02-01T01:20:59;7.30;70.50
15554;DHT22;7878;44.632;10.942;2023-02-01T01:23:26;7.20;70.80
15554;DHT22;7878;44.632;10.942;2023-02-01T01:25:52;7.20;71.00
15554;DHT22;7878;44.632;10.942;2023-02-01T01:28:17;7.20;70.60
15554;DHT22;7878;44.632;10.942;2023-02-01T01:30:43;7.20;70.20
15554;DHT22;7878;44.632;10.942;2023-02-01T01:33:09;7.20;70.90
15554;DHT22;7878;44.632;10.942;2023-02-01T01:35:35;7.20;70.50
15554;DHT22;7878;44.632;10.942;2023-02-01T01:38:01;7.20;70.60
15554;DHT22;7878;44.632;10.942;2023-02-01T01:40:28;7.20;70.60
15554;DHT22;7878;44.632;10.942;2023-02-01T01:42:55;7.00;70.90
15554;DHT22;7878;44.632;10.942;2023-02-01T01:47:53;7.00;71.20
15554;DHT22;7878;44.632;10.942;2023-02-01T01:50:25;7.10;71.50
15554;DHT22;7878;44.632;10.942;2023-02-01T01:52:54;7.10;71.00
15554;DHT22;7878;44.632;10.942;2023-02-01T01:55:22;7.00;70.60
15554;DHT22;7878;44.632;10.942;2023-02-01T01:58:11;7.00;70.40
15554;DHT22;7878;44.632;10.942;2023-02-01T02:00:38;7.00;70.70
15554;DHT22;7878;44.632;10.942;2023-02-01T02:03:12;6.90;70.50
15554;DHT22;7878;44.632;10.942;2023-02-01T02:05:39;6.90;70.60
15554;DHT22;7878;44.632;10.942;2023-02-01T02:08:05;6.80;70.40
15554;DHT22;7878;44.632;10.942;2023-02-01T02:10:31;6.80;70.50
15554;DHT22;7878;44.632;10.942;2023-02-01T02:13:16;6.70;71.00
15554;DHT22;7878;44.632;10.942;2023-02-01T02:15:48;6.70;71.00
15554;DHT22;7878;44.632;10.942;2023-02-01T02:21:23;6.70;71.20
15554;DHT22;7878;44.632;10.942;2023-02-01T02:33:13;6.50;70.40
15554;DHT22;7878;44.632;10.942;2023-02-01T02:39:18;6.60;70.30
15554;DHT22;7878;44.632;10.942;2023-02-01T02:43:45;6.60;70.20
15554;DHT22;7878;44.632;10.942;2023-02-01T02:46:42;6.60;69.90
15554;DHT22;7878;44.632;10.942;2023-02-01T02:52:15;6.60;70.00
15554;DHT22;7878;44.632;10.942;2023-02-01T02:55:02;6.60;70.30
15554;DHT22;7878;44.632;10.942;2023-02-01T02:57:36;6.60;69.90
15554;DHT22;7878;44.632;10.942;2023-02-01T03:00:23;6.60;69.80
15554;DHT22;7878;44.632;10.942;2023-02-01T03:03:08;6.60;69.80
15554;DHT22;7878;44.632;10.942;2023-02-01T03:05:53;6.60;70.10
15554;DHT22;7878;44.632;10.942;2023-02-01T03:08:23;6.60;70.90
15554;DHT22;7878;44.632;10.942;2023-02-01T03:10:59;6.60;70.20
15554;DHT22;7878;44.632;10.942;2023-02-01T03:16:26;6.60;70.10
15554;DHT22;7878;44.632;10.942;2023-02-01T03:19:15;6.50;70.00
15554;DHT22;7878;44.632;10.942;2023-02-01T03:24:23;6.50;69.90
15554;DHT22;7878;44.632;10.942;2023-02-01T03:27:23;6.50;69.80
15554;DHT22;7878;44.632;10.942;2023-02-01T03:29:51;6.50;69.70
15554;DHT22;7878;44.632;10.942;2023-02-01T03:32:18;6.40;69.80
15554;DHT22;7878;44.632;10.942;2023-02-01T03:34:44;6.40;69.80
15554;DHT22;7878;44.632;10.942;2023-02-01T03:37:13;6.40;69.60
15554;DHT22;7878;44.632;10.942;2023-02-01T03:40:01;6.40;69.60
15554;DHT22;7878;44.632;10.942;2023-02-01T03:42:49;6.40;69.70
15554;DHT22;7878;44.632;10.942;2023-02-01T03:45:31;6.40;70.00
15554;DHT22;7878;44.632;10.942;2023-02-01T03:48:00;6.40;70.10
15554;DHT22;7878;44.632;10.942;2023-02-01T03:50:27;6.30;70.10
15554;DHT22;7878;44.632;10.942;2023-02-01T03:53:07;6.20;70.70
15554;DHT22;7878;44.632;10.942;2023-02-01T03:55:35;6.20;70.60
15554;DHT22;7878;44.632;10.942;2023-02-01T03:58:21;6.20;70.70
15554;DHT22;7878;44.632;10.942;2023-02-01T04:00:58;6.20;71.20
15554;DHT22;7878;44.632;10.942;2023-02-01T04:03:25;6.20;71.00
15554;DHT22;7878;44.632;10.942;2023-02-01T04:05:51;6.20;70.80
15554;DHT22;7878;44.632;10.942;2023-02-01T04:08:18;6.20;70.90
15554;DHT22;7878;44.632;10.942;2023-02-01T04:10:44;6.20;71.00
15554;DHT22;7878;44.632;10.942;2023-02-01T04:13:11;6.20;71.00
15554;DHT22;7878;44.632;10.942;2023-02-01T04:15:37;6.20;71.20
15554;DHT22;7878;44.632;10.942;2023-02-01T04:18:03;6.20;71.10
15554;DHT22;7878;44.632;10.942;2023-02-01T04:20:29;6.10;71.00
15554;DHT22;7878;44.632;10.942;2023-02-01T04:22:55;6.10;71.10
15554;DHT22;7878;44.632;10.942;2023-02-01T04:25:20;6.10;71.30
15554;DHT22;7878;44.632;10.942;2023-02-01T04:27:46;6.00;71.00
15554;DHT22;7878;44.632;10.942;2023-02-01T04:30:12;6.00;71.40
15554;DHT22;7878;44.632;10.942;2023-02-01T04:32:39;6.00;71.30
15554;DHT22;7878;44.632;10.942;2023-02-01T04:35:06;6.00;71.20
15554;DHT22;7878;44.632;10.942;2023-02-01T04:37:32;6.00;71.40
15554;DHT22;7878;44.632;10.942;2023-02-01T04:39:57;6.00;71.70
15554;DHT22;7878;44.632;10.942;2023-02-01T04:42:23;5.90;71.50
15554;DHT22;7878;44.632;10.942;2023-02-01T04:44:49;5.90;71.50
15554;DHT22;7878;44.632;10.942;2023-02-01T04:47:14;5.90;71.40
15554;DHT22;7878;44.632;10.942;2023-02-01T04:49:41;5.90;71.10
15554;DHT22;7878;44.632;10.942;2023-02-01T04:52:07;5.90;71.20
15554;DHT22;7878;44.632;10.942;2023-02-01T04:54:32;5.90;71.10
15554;DHT22;7878;44.632;10.942;2023-02-01T04:56:58;5.90;71.00
15554;DHT22;7878;44.632;10.942;2023-02-01T04:59:24;5.90;70.90
15554;DHT22;7878;44.632;10.942;2023-02-01T05:01:50;5.90;70.90
15554;DHT22;7878;44.632;10.942;2023-02-01T05:04:15;5.90;70.80
15554;DHT22;7878;44.632;10.942;2023-02-01T05:06:44;5.90;70.50
15554;DHT22;7878;44.632;10.942;2023-02-01T05:09:10;6.00;70.60
15554;DHT22;7878;44.632;10.942;2023-02-01T05:11:35;5.90;70.70
15554;DHT22;7878;44.632;10.942;2023-02-01T05:14:19;5.90;70.60
15554;DHT22;7878;44.632;10.942;2023-02-01T05:16:45;5.90;70.60
15554;DHT22;7878;44.632;10.942;2023-02-01T05:19:10;5.90;70.70
15554;DHT22;7878;44.632;10.942;2023-02-01T05:21:36;5.90;70.70
15554;DHT22;7878;44.632;10.942;2023-02-01T05:24:02;5.90;70.60
15554;DHT22;7878;44.632;10.942;2023-02-01T05:26:48;5.90;70.60
15554;DHT22;7878;44.632;10.942;2023-02-01T05:29:15;5.90;70.70
15554;DHT22;7878;44.632;10.942;2023-02-01T05:31:41;5.90;70.50
15554;DHT22;7878;44.632;10.942;2023-02-01T05:34:09;5.90;70.40
15554;DHT22;7878;44.632;10.942;2023-02-01T05:36:34;5.90;70.40
15554;DHT22;7878;44.632;10.942;2023-02-01T05:39:00;5.90;70.40
15554;DHT22;7878;44.632;10.942;2023-02-01T05:41:26;5.90;70.40
15554;DHT22;7878;44.632;10.942;2023-02-01T05:43:51;5.90;70.50
15554;DHT22;7878;44.632;10.942;2023-02-01T05:46:17;5.90;70.80
15554;DHT22;7878;44.632;10.942;2023-02-01T05:48:43;5.90;70.40
15554;DHT22;7878;44.632;10.942;2023-02-01T05:51:09;5.90;70.60
15554;DHT22;7878;44.632;10.942;2023-02-01T05:53:35;5.90;70.70
15554;DHT22;7878;44.632;10.942;2023-02-01T05:56:00;5.90;70.90
15554;DHT22;7878;44.632;10.942;2023-02-01T05:58:26;5.80;70.70
15554;DHT22;7878;44.632;10.942;2023-02-01T06:00:52;5.90;70.80
15554;DHT22;7878;44.632;10.942;2023-02-01T06:03:18;5.80;70.40
15554;DHT22;7878;44.632;10.942;2023-02-01T06:05:44;5.80;70.50
15554;DHT22;7878;44.632;10.942;2023-02-01T06:08:10;5.90;70.70
15554;DHT22;7878;44.632;10.942;2023-02-01T06:10:36;5.80;70.60
15554;DHT22;7878;44.632;10.942;2023-02-01T06:13:02;5.80;70.60
15554;DHT22;7878;44.632;10.942;2023-02-01T06:15:28;5.80;70.70
15554;DHT22;7878;44.632;10.942;2023-02-01T06:17:54;5.90;70.60
15554;DHT22;7878;44.632;10.942;2023-02-01T06:20:20;5.90;70.50
15554;DHT22;7878;44.632;10.942;2023-02-01T06:22:46;5.90;70.40
15554;DHT22;7878;44.632;10.942;2023-02-01T06:25:11;5.90;70.60
15554;DHT22;7878;44.632;10.942;2023-02-01T06:27:37;5.90;70.80
15554;DHT22;7878;44.632;10.942;2023-02-01T06:30:05;5.90;70.90
15554;DHT22;7878;44.632;10.942;2023-02-01T06:32:30;5.80;70.50
15554;DHT22;7878;44.632;10.942;2023-02-01T06:34:56;5.90;70.70
15554;DHT22;7878;44.632;10.942;2023-02-01T06:37:23;5.90;70.70
15554;DHT22;7878;44.632;10.942;2023-02-01T06:39:50;5.90;70.70
15554;DHT22;7878;44.632;10.942;2023-02-01T06:42:16;5.90;70.70
15554;DHT22;7878;44.632;10.942;2023-02-01T06:44:42;5.90;70.60
15554;DHT22;7878;44.632;10.942;2023-02-01T06:47:07;5.90;70.60
15554;DHT22;7878;44.632;10.942;2023-02-01T06:49:33;5.90;70.50
15554;DHT22;7878;44.632;10.942;2023-02-01T06:51:59;5.90;70.90
15554;DHT22;7878;44.632;10.942;2023-02-01T06:54:28;5.90;70.90
15554;DHT22;7878;44.632;10.942;2023-02-01T06:56:54;5.90;70.90
15554;DHT22;7878;44.632;10.942;2023-02-01T06:59:20;5.90;71.30
15554;DHT22;7878;44.632;10.942;2023-02-01T07:01:46;5.80;71.20
15554;DHT22;7878;44.632;10.942;2023-02-01T07:04:12;5.80;71.30
15554;DHT22;7878;44.632;10.942;2023-02-01T07:06:38;5.80;71.80
15554;DHT22;7878;44.632;10.942;2023-02-01T07:09:04;5.80;71.80
15554;DHT22;7878;44.632;10.942;2023-02-01T07:11:30;5.80;71.60
15554;DHT22;7878;44.632;10.942;2023-02-01T07:13:57;5.80;72.50
15554;DHT22;7878;44.632;10.942;2023-02-01T07:16:23;5.90;72.30
15554;DHT22;7878;44.632;10.942;2023-02-01T07:18:50;5.90;72.00
15554;DHT22;7878;44.632;10.942;2023-02-01T07:21:16;5.90;71.80
15554;DHT22;7878;44.632;10.942;2023-02-01T07:23:42;6.00;72.10
15554;DHT22;7878;44.632;10.942;2023-02-01T07:26:10;6.00;71.80
15554;DHT22;7878;44.632;10.942;2023-02-01T07:28:37;6.00;71.30
15554;DHT22;7878;44.632;10.942;2023-02-01T07:31:09;6.00;70.80
15554;DHT22;7878;44.632;10.942;2023-02-01T07:33:35;6.00;70.80
15554;DHT22;7878;44.632;10.942;2023-02-01T07:36:04;6.00;70.50
15554;DHT22;7878;44.632;10.942;2023-02-01T07:38:30;6.10;70.60
15554;DHT22;7878;44.632;10.942;2023-02-01T07:41:00;6.20;70.50
15554;DHT22;7878;44.632;10.942;2023-02-01T07:43:27;6.30;70.30
15554;DHT22;7878;44.632;10.942;2023-02-01T07:45:53;6.30;70.00
15554;DHT22;7878;44.632;10.942;2023-02-01T07:48:19;6.40;69.60
15554;DHT22;7878;44.632;10.942;2023-02-01T07:50:45;6.40;69.60
15554;DHT22;7878;44.632;10.942;2023-02-01T07:53:10;6.40;70.20
15554;DHT22;7878;44.632;10.942;2023-02-01T07:55:40;6.50;69.60
15554;DHT22;7878;44.632;10.942;2023-02-01T07:58:06;6.60;69.60
15554;DHT22;7878;44.632;10.942;2023-02-01T08:00:31;6.60;69.60
15554;DHT22;7878;44.632;10.942;2023-02-01T08:03:16;6.70;69.60
15554;DHT22;7878;44.632;10.942;2023-02-01T08:05:41;6.80;69.50
15554;DHT22;7878;44.632;10.942;2023-02-01T08:08:07;6.90;69.10
15554;DHT22;7878;44.632;10.942;2023-02-01T08:10:33;7.00;69.20
15554;DHT22;7878;44.632;10.942;2023-02-01T08:13:01;7.10;69.00
15554;DHT22;7878;44.632;10.942;2023-02-01T08:15:28;7.20;69.30
15554;DHT22;7878;44.632;10.942;2023-02-01T08:17:54;7.30;69.50
15554;DHT22;7878;44.632;10.942;2023-02-01T08:20:23;7.40;69.50
15554;DHT22;7878;44.632;10.942;2023-02-01T08:22:50;7.40;69.40
15554;DHT22;7878;44.632;10.942;2023-02-01T08:25:17;7.50;69.60
15554;DHT22;7878;44.632;10.942;2023-02-01T08:27:43;7.60;69.80
15554;DHT22;7878;44.632;10.942;2023-02-01T08:30:10;7.70;69.30
15554;DHT22;7878;44.632;10.942;2023-02-01T08:32:36;7.90;69.40
15554;DHT22;7878;44.632;10.942;2023-02-01T08:35:05;8.00;69.10
15554;DHT22;7878;44.632;10.942;2023-02-01T08:37:31;8.20;68.80
15554;DHT22;7878;44.632;10.942;2023-02-01T08:39:57;9.10;68.60
15554;DHT22;7878;44.632;10.942;2023-02-01T08:42:22;10.40;66.10
15554;DHT22;7878;44.632;10.942;2023-02-01T08:45:07;11.60;63.40
15554;DHT22;7878;44.632;10.942;2023-02-01T08:47:36;12.30;61.60
15554;DHT22;7878;44.632;10.942;2023-02-01T08:50:01;12.70;60.50
15554;DHT22;7878;44.632;10.942;2023-02-01T08:52:27;12.80;60.10
15554;DHT22;7878;44.632;10.942;2023-02-01T08:54:53;12.80;60.00
15554;DHT22;7878;44.632;10.942;2023-02-01T08:57:18;12.60;60.00
15554;DHT22;7878;44.632;10.942;2023-02-01T08:59:44;12.30;60.60
15554;DHT22;7878;44.632;10.942;2023-02-01T09:02:13;12.10;61.00
15554;DHT22;7878;44.632;10.942;2023-02-01T09:04:39;12.20;61.40
15554;DHT22;7878;44.632;10.942;2023-02-01T09:07:04;12.50;61.40
15554;DHT22;7878;44.632;10.942;2023-02-01T09:09:30;12.80;61.20
15554;DHT22;7878;44.632;10.942;2023-02-01T09:11:56;13.20;60.50
15554;DHT22;7878;44.632;10.942;2023-02-01T09:14:21;13.40;59.90
15554;DHT22;7878;44.632;10.942;2023-02-01T09:16:47;13.50;59.40
15554;DHT22;7878;44.632;10.942;2023-02-01T09:19:13;13.40;59.40
15554;DHT22;7878;44.632;10.942;2023-02-01T09:21:39;13.20;60.20
15554;DHT22;7878;44.632;10.942;2023-02-01T09:24:05;13.20;60.40
15554;DHT22;7878;44.632;10.942;2023-02-01T09:26:32;12.80;60.90
15554;DHT22;7878;44.632;10.942;2023-02-01T09:28:58;12.40;61.40
15554;DHT22;7878;44.632;10.942;2023-02-01T09:31:24;12.00;61.80
15554;DHT22;7878;44.632;10.942;2023-02-01T09:33:50;11.80;62.60
15554;DHT22;7878;44.632;10.942;2023-02-01T09:36:15;11.70;62.90
15554;DHT22;7878;44.632;10.942;2023-02-01T09:38:41;11.60;63.20
15554;DHT22;7878;44.632;10.942;2023-02-01T09:41:32;11.60;63.40
15554;DHT22;7878;44.632;10.942;2023-02-01T09:46:55;11.60;63.20
15554;DHT22;7878;44.632;10.942;2023-02-01T09:49:37;11.50;63.50
15554;DHT22;7878;44.632;10.942;2023-02-01T09:52:09;11.70;63.80
15554;DHT22;7878;44.632;10.942;2023-02-01T09:54:52;12.20;64.00
15554;DHT22;7878;44.632;10.942;2023-02-01T09:57:27;13.20;62.90
15554;DHT22;7878;44.632;10.942;2023-02-01T10:00:14;14.80;62.40
15554;DHT22;7878;44.632;10.942;2023-02-01T10:02:40;16.50;59.00
15554;DHT22;7878;44.632;10.942;2023-02-01T10:05:13;18.30;58.40
15554;DHT22;7878;44.632;10.942;2023-02-01T10:08:17;19.50;55.70
15554;DHT22;7878;44.632;10.942;2023-02-01T10:10:49;20.50;53.60
15554;DHT22;7878;44.632;10.942;2023-02-01T10:24:41;25.40;51.10
15554;DHT22;7878;44.632;10.942;2023-02-01T10:29:46;28.10;47.90
15554;DHT22;7878;44.632;10.942;2023-02-01T10:32:24;28.90;47.50
15554;DHT22;7878;44.632;10.942;2023-02-01T10:34:58;29.60;45.00
15554;DHT22;7878;44.632;10.942;2023-02-01T10:37:33;30.00;46.10
15554;DHT22;7878;44.632;10.942;2023-02-01T10:42:39;28.30;45.80
15554;DHT22;7878;44.632;10.942;2023-02-01T10:45:06;26.90;47.00
15554;DHT22;7878;44.632;10.942;2023-02-01T10:47:32;26.10;49.20
15554;DHT22;7878;44.632;10.942;2023-02-01T10:52:46;29.00;46.30
15554;DHT22;7878;44.632;10.942;2023-02-01T10:55:50;30.90;45.80
15554;DHT22;7878;44.632;10.942;2023-02-01T10:58:30;32.40;43.00
15554;DHT22;7878;44.632;10.942;2023-02-01T11:01:05;33.40;46.00
15554;DHT22;7878;44.632;10.942;2023-02-01T11:03:51;33.90;43.50
15554;DHT22;7878;44.632;10.942;2023-02-01T11:06:54;34.10;40.20
15554;DHT22;7878;44.632;10.942;2023-02-01T11:09:20;34.40;42.90
15554;DHT22;7878;44.632;10.942;2023-02-01T11:14:20;34.70;44.50
15554;DHT22;7878;44.632;10.942;2023-02-01T11:19:58;31.70;38.60
15554;DHT22;7878;44.632;10.942;2023-02-01T11:22:26;31.00;41.60
15554;DHT22;7878;44.632;10.942;2023-02-01T11:24:53;32.10;45.20
15554;DHT22;7878;44.632;10.942;2023-02-01T11:27:21;33.00;45.00
15554;DHT22;7878;44.632;10.942;2023-02-01T11:29:51;32.80;43.20
15554;DHT22;7878;44.632;10.942;2023-02-01T11:32:19;32.10;42.30
15554;DHT22;7878;44.632;10.942;2023-02-01T11:35:11;32.50;43.80
15554;DHT22;7878;44.632;10.942;2023-02-01T11:37:37;33.50;44.30
15554;DHT22;7878;44.632;10.942;2023-02-01T11:40:25;34.70;43.20
15554;DHT22;7878;44.632;10.942;2023-02-01T11:43:28;35.50;38.40
15554;DHT22;7878;44.632;10.942;2023-02-01T11:45:59;36.50;37.20
15554;DHT22;7878;44.632;10.942;2023-02-01T11:48:28;36.80;39.90
15554;DHT22;7878;44.632;10.942;2023-02-01T11:56:29;37.60;36.60
15554;DHT22;7878;44.632;10.942;2023-02-01T11:59:07;37.90;41.40
15554;DHT22;7878;44.632;10.942;2023-02-01T12:07:23;35.50;37.50
15554;DHT22;7878;44.632;10.942;2023-02-01T12:17:55;35.40;42.00
15554;DHT22;7878;44.632;10.942;2023-02-01T12:25:39;37.10;38.80
15554;DHT22;7878;44.632;10.942;2023-02-01T12:33:55;35.40;37.00
15554;DHT22;7878;44.632;10.942;2023-02-01T12:39:40;34.00;38.10
15554;DHT22;7878;44.632;10.942;2023-02-01T12:47:32;34.50;40.70
15554;DHT22;7878;44.632;10.942;2023-02-01T12:52:52;33.00;44.20
15554;DHT22;7878;44.632;10.942;2023-02-01T12:55:36;30.20;43.10
15554;DHT22;7878;44.632;10.942;2023-02-01T13:01:39;25.70;49.40
15554;DHT22;7878;44.632;10.942;2023-02-01T13:06:53;25.00;48.90
15554;DHT22;7878;44.632;10.942;2023-02-01T13:09:34;26.30;48.20
15554;DHT22;7878;44.632;10.942;2023-02-01T13:12:11;27.70;46.90
15554;DHT22;7878;44.632;10.942;2023-02-01T13:14:51;28.50;45.60
15554;DHT22;7878;44.632;10.942;2023-02-01T13:17:27;29.00;44.20
15554;DHT22;7878;44.632;10.942;2023-02-01T13:20:06;27.50;44.10
15554;DHT22;7878;44.632;10.942;2023-02-01T13:22:41;25.40;46.40
15554;DHT22;7878;44.632;10.942;2023-02-01T13:25:20;23.40;48.40
15554;DHT22;7878;44.632;10.942;2023-02-01T13:27:53;22.10;48.90
15554;DHT22;7878;44.632;10.942;2023-02-01T13:30:22;21.20;50.70
15554;DHT22;7878;44.632;10.942;2023-02-01T13:43:38;19.60;52.30
15554;DHT22;7878;44.632;10.942;2023-02-01T13:46:09;19.40;52.90
15554;DHT22;7878;44.632;10.942;2023-02-01T13:48:45;19.20;52.60
15554;DHT22;7878;44.632;10.942;2023-02-01T13:51:12;18.90;52.50
15554;DHT22;7878;44.632;10.942;2023-02-01T13:53:47;18.70;53.10
15554;DHT22;7878;44.632;10.942;2023-02-01T13:56:18;18.30;53.40
15554;DHT22;7878;44.632;10.942;2023-02-01T13:58:46;18.10;54.00
15554;DHT22;7878;44.632;10.942;2023-02-01T14:03:49;17.60;54.50
15554;DHT22;7878;44.632;10.942;2023-02-01T14:09:18;17.10;55.40
15554;DHT22;7878;44.632;10.942;2023-02-01T14:11:46;16.90;55.80
15554;DHT22;7878;44.632;10.942;2023-02-01T14:19:32;16.40;56.50
15554;DHT22;7878;44.632;10.942;2023-02-01T14:22:01;16.30;56.60
15554;DHT22;7878;44.632;10.942;2023-02-01T14:24:56;16.20;57.40
15554;DHT22;7878;44.632;10.942;2023-02-01T14:27:25;16.10;57.60
15554;DHT22;7878;44.632;10.942;2023-02-01T14:30:02;16.10;57.60
15554;DHT22;7878;44.632;10.942;2023-02-01T14:32:40;15.90;57.60
15554;DHT22;7878;44.632;10.942;2023-02-01T14:35:20;15.90;58.10
15554;DHT22;7878;44.632;10.942;2023-02-01T14:37:50;15.80;58.20
15554;DHT22;7878;44.632;10.942;2023-02-01T14:40:23;15.80;58.40
15554;DHT22;7878;44.632;10.942;2023-02-01T14:42:54;15.70;58.70
15554;DHT22;7878;44.632;10.942;2023-02-01T14:50:31;15.50;59.50
15554;DHT22;7878;44.632;10.942;2023-02-01T15:06:41;15.10;59.60
15554;DHT22;7878;44.632;10.942;2023-02-01T15:09:32;15.10;59.80
15554;DHT22;7878;44.632;10.942;2023-02-01T15:14:38;15.00;60.10
15554;DHT22;7878;44.632;10.942;2023-02-01T15:20:16;14.90;61.00
15554;DHT22;7878;44.632;10.942;2023-02-01T15:22:43;14.80;61.90
15554;DHT22;7878;44.632;10.942;2023-02-01T15:25:28;14.80;60.80
15554;DHT22;7878;44.632;10.942;2023-02-01T15:27:54;14.80;61.00
15554;DHT22;7878;44.632;10.942;2023-02-01T15:30:26;14.70;60.90
15554;DHT22;7878;44.632;10.942;2023-02-01T15:35:50;14.60;61.90
15554;DHT22;7878;44.632;10.942;2023-02-01T15:46:06;14.30;61.90
15554;DHT22;7878;44.632;10.942;2023-02-01T15:48:37;14.30;61.70
15554;DHT22;7878;44.632;10.942;2023-02-01T15:51:04;14.20;62.30
15554;DHT22;7878;44.632;10.942;2023-02-01T15:53:31;14.10;62.80
15554;DHT22;7878;44.632;10.942;2023-02-01T15:56:00;14.10;63.50
15554;DHT22;7878;44.632;10.942;2023-02-01T15:58:27;14.00;63.80
15554;DHT22;7878;44.632;10.942;2023-02-01T16:00:59;13.90;64.10
15554;DHT22;7878;44.632;10.942;2023-02-01T16:03:37;13.80;64.60
15554;DHT22;7878;44.632;10.942;2023-02-01T16:06:29;13.70;65.40
15554;DHT22;7878;44.632;10.942;2023-02-01T16:09:14;13.70;65.40
15554;DHT22;7878;44.632;10.942;2023-02-01T16:12:01;13.60;66.90
15554;DHT22;7878;44.632;10.942;2023-02-01T16:14:27;13.50;66.80
15554;DHT22;7878;44.632;10.942;2023-02-01T16:16:56;13.50;65.90
15554;DHT22;7878;44.632;10.942;2023-02-01T16:19:22;13.40;66.10
15554;DHT22;7878;44.632;10.942;2023-02-01T16:21:53;13.40;66.60
15554;DHT22;7878;44.632;10.942;2023-02-01T16:24:19;13.30;67.00
15554;DHT22;7878;44.632;10.942;2023-02-01T16:26:44;13.30;67.90
15554;DHT22;7878;44.632;10.942;2023-02-01T16:29:10;13.20;68.10
15554;DHT22;7878;44.632;10.942;2023-02-01T16:31:39;13.10;68.10
15554;DHT22;7878;44.632;10.942;2023-02-01T16:34:05;13.10;68.40
15554;DHT22;7878;44.632;10.942;2023-02-01T16:36:32;13.00;68.70
15554;DHT22;7878;44.632;10.942;2023-02-01T16:38:58;12.90;68.80
15554;DHT22;7878;44.632;10.942;2023-02-01T16:41:24;12.90;69.60
15554;DHT22;7878;44.632;10.942;2023-02-01T16:43:52;12.80;69.50
15554;DHT22;7878;44.632;10.942;2023-02-01T16:46:20;12.80;69.90
15554;DHT22;7878;44.632;10.942;2023-02-01T16:48:58;12.70;70.40
15554;DHT22;7878;44.632;10.942;2023-02-01T16:51:27;12.60;70.70
15554;DHT22;7878;44.632;10.942;2023-02-01T16:53:53;12.60;70.50
15554;DHT22;7878;44.632;10.942;2023-02-01T16:56:39;12.50;70.60
15554;DHT22;7878;44.632;10.942;2023-02-01T16:59:06;12.50;70.80
15554;DHT22;7878;44.632;10.942;2023-02-01T17:01:34;12.40;71.10
15554;DHT22;7878;44.632;10.942;2023-02-01T17:03:59;12.40;71.70
15554;DHT22;7878;44.632;10.942;2023-02-01T17:06:26;12.30;71.40
15554;DHT22;7878;44.632;10.942;2023-02-01T17:08:57;12.30;71.60
15554;DHT22;7878;44.632;10.942;2023-02-01T17:11:23;12.30;72.50
15554;DHT22;7878;44.632;10.942;2023-02-01T17:13:49;12.20;73.00
15554;DHT22;7878;44.632;10.942;2023-02-01T17:16:22;12.20;73.20
15554;DHT22;7878;44.632;10.942;2023-02-01T17:18:56;12.10;73.20
15554;DHT22;7878;44.632;10.942;2023-02-01T17:21:23;12.00;73.20
15554;DHT22;7878;44.632;10.942;2023-02-01T17:23:49;12.00;73.20
15554;DHT22;7878;44.632;10.942;2023-02-01T17:26:15;11.90;73.40
15554;DHT22;7878;44.632;10.942;2023-02-01T17:28:40;11.90;73.70
15554;DHT22;7878;44.632;10.942;2023-02-01T17:31:07;11.80;73.50
15554;DHT22;7878;44.632;10.942;2023-02-01T17:33:35;11.80;74.80
15554;DHT22;7878;44.632;10.942;2023-02-01T17:36:03;11.80;75.50
15554;DHT22;7878;44.632;10.942;2023-02-01T17:38:29;11.70;74.50
15554;DHT22;7878;44.632;10.942;2023-02-01T17:40:54;11.60;74.70
15554;DHT22;7878;44.632;10.942;2023-02-01T17:43:24;11.60;74.90
15554;DHT22;7878;44.632;10.942;2023-02-01T17:46:19;11.60;75.50
15554;DHT22;7878;44.632;10.942;2023-02-01T17:48:54;11.60;78.10
15554;DHT22;7878;44.632;10.942;2023-02-01T17:51:23;11.50;75.80
15554;DHT22;7878;44.632;10.942;2023-02-01T17:53:49;11.40;75.70
15554;DHT22;7878;44.632;10.942;2023-02-01T17:56:17;11.40;75.70
15554;DHT22;7878;44.632;10.942;2023-02-01T17:58:43;11.30;76.50
15554;DHT22;7878;44.632;10.942;2023-02-01T18:01:18;11.30;76.60
15554;DHT22;7878;44.632;10.942;2023-02-01T18:03:44;11.30;76.20
15554;DHT22;7878;44.632;10.942;2023-02-01T18:06:16;11.30;76.50
15554;DHT22;7878;44.632;10.942;2023-02-01T18:08:42;11.30;77.70
15554;DHT22;7878;44.632;10.942;2023-02-01T18:11:16;11.20;77.50
15554;DHT22;7878;44.632;10.942;2023-02-01T18:13:42;11.20;77.80
15554;DHT22;7878;44.632;10.942;2023-02-01T18:18:46;11.10;77.90
15554;DHT22;7878;44.632;10.942;2023-02-01T18:21:13;11.10;77.70
15554;DHT22;7878;44.632;10.942;2023-02-01T18:23:38;11.10;77.50
15554;DHT22;7878;44.632;10.942;2023-02-01T18:26:04;11.10;77.80
15554;DHT22;7878;44.632;10.942;2023-02-01T18:28:30;11.00;78.30
15554;DHT22;7878;44.632;10.942;2023-02-01T18:30:55;11.00;77.80
15554;DHT22;7878;44.632;10.942;2023-02-01T18:33:22;10.90;77.60
15554;DHT22;7878;44.632;10.942;2023-02-01T18:35:48;10.80;78.30
15554;DHT22;7878;44.632;10.942;2023-02-01T18:38:14;10.80;78.20
15554;DHT22;7878;44.632;10.942;2023-02-01T18:40:54;10.80;78.20